createdAt,value
2019-05-14T00:00:12.638Z,4.23
2019-05-14T00:02:41.443Z,5.43
2019-05-14T00:05:12.163Z,5.17
2019-05-14T00:07:41.450Z,5.97
2019-05-14T00:10:11.881Z,5.90
2019-05-14T00:12:41.862Z,5.83
2019-05-14T00:15:11.348Z,5.30
2019-05-14T00:17:41.573Z,5.07
2019-05-14T00:20:13.371Z,5.37
2019-05-14T00:22:41.770Z,6.13
2019-05-14T00:25:11.809Z,5.00
2019-05-14T00:27:41.478Z,5.33
2019-05-14T00:30:11.478Z,4.30
2019-05-14T00:32:41.360Z,4.70
2019-05-14T00:35:11.119Z,4.47
2019-05-14T00:37:41.529Z,5.47
2019-05-14T00:40:11.787Z,3.90
2019-05-14T00:42:41.444Z,4.80
2019-05-14T00:45:11.695Z,4.13
2019-05-14T00:47:41.782Z,4.93
2019-05-14T00:50:11.841Z,4.67
2019-05-14T00:52:44.205Z,4.30
2019-05-14T00:55:11.735Z,5.10
2019-05-14T00:57:42.506Z,5.90
2019-05-14T01:00:11.947Z,5.43
2019-05-14T01:02:41.627Z,5.03
2019-05-14T01:05:12.418Z,5.20
2019-05-14T01:07:44.899Z,4.35
2019-05-14T01:10:13.737Z,6.30
2019-05-14T01:12:42.439Z,5.10
2019-05-14T01:15:14.072Z,5.70
2019-05-14T01:17:42.177Z,6.15
2019-05-14T01:20:12.313Z,6.03
2019-05-14T01:22:42.243Z,5.50
2019-05-14T01:25:11.980Z,5.45
2019-05-14T01:27:41.327Z,5.95
2019-05-14T01:30:12.479Z,5.85
2019-05-14T01:32:42.019Z,5.67
2019-05-14T01:35:12.081Z,6.30
2019-05-14T01:47:41.445Z,6.50
2019-05-14T01:50:11.307Z,6.00
2019-05-14T02:00:08.472Z,5.60
2019-05-14T02:02:36.996Z,5.40
2019-05-14T02:05:08.318Z,4.60
2019-05-14T02:07:37.031Z,5.60
2019-05-14T02:10:08.911Z,4.43
2019-05-14T02:12:38.259Z,5.50
2019-05-14T02:15:08.373Z,4.60
2019-05-14T02:17:36.831Z,4.20
2019-05-14T02:20:05.833Z,4.30
2019-05-14T02:22:34.490Z,4.45
2019-05-14T02:25:03.029Z,4.60
2019-05-14T02:27:34.922Z,5.70
2019-05-14T02:30:02.602Z,4.90
2019-05-14T02:32:31.375Z,4.93
2019-05-14T02:35:00.038Z,4.37
2019-05-14T02:37:30.108Z,5.87
2019-05-14T02:39:59.695Z,4.57
2019-05-14T02:42:29.147Z,4.80
2019-05-14T02:44:59.283Z,5.90
2019-05-14T02:47:29.795Z,4.23
2019-05-14T02:49:58.972Z,5.97
2019-05-14T02:52:29.177Z,4.00
2019-05-14T02:54:59.730Z,4.80
2019-05-14T02:57:30.353Z,5.30
2019-05-14T02:59:59.670Z,5.13
2019-05-14T03:02:29.728Z,5.40
2019-05-14T03:04:59.163Z,5.30
2019-05-14T03:07:29.856Z,5.70
2019-05-14T03:09:59.381Z,5.63
2019-05-14T03:12:30.292Z,6.07
2019-05-14T03:14:58.961Z,5.60
2019-05-14T03:17:30.028Z,6.53
2019-05-14T03:20:00.066Z,4.80
2019-05-14T03:22:43.258Z,5.50
2019-05-14T03:24:59.762Z,6.03
2019-05-14T03:27:30.466Z,6.00
2019-05-14T03:29:58.966Z,7.07
2019-05-14T03:32:32.363Z,6.17
2019-05-14T03:35:03.344Z,5.60
2019-05-14T03:37:30.919Z,7.63
2019-05-14T03:39:59.491Z,10.63
2019-05-14T03:42:29.149Z,13.00
2019-05-14T03:44:59.666Z,10.80
2019-05-14T03:47:29.780Z,12.60
2019-05-14T03:49:58.932Z,14.17
2019-05-14T03:52:29.313Z,12.03
2019-05-14T03:55:01.309Z,11.60
2019-05-14T03:57:29.247Z,10.40
2019-05-14T03:59:59.909Z,10.60
2019-05-14T04:02:29.664Z,12.47
2019-05-14T04:04:59.980Z,22.80
2019-05-14T04:07:30.696Z,17.67
2019-05-14T04:10:00.300Z,34.03
2019-05-14T04:12:31.575Z,38.17
2019-05-14T04:15:02.766Z,14.27
2019-05-14T04:17:38.881Z,20.73
2019-05-14T04:20:09.389Z,16.53
2019-05-14T04:22:40.325Z,12.33
2019-05-14T04:25:10.961Z,12.33
2019-05-14T04:27:41.068Z,19.33
2019-05-14T04:30:10.622Z,16.30
2019-05-14T04:32:41.182Z,14.33
2019-05-14T04:35:10.388Z,9.20
2019-05-14T04:37:40.154Z,7.87
2019-05-14T04:40:10.501Z,5.80
2019-05-14T04:42:40.099Z,4.50
2019-05-14T04:45:11.058Z,5.13
2019-05-14T04:47:42.024Z,5.07
2019-05-14T04:50:10.741Z,4.40
2019-05-14T04:52:40.520Z,4.97
2019-05-14T04:55:09.945Z,4.85
2019-05-14T04:57:40.422Z,4.30
2019-05-14T05:00:12.292Z,4.15
2019-05-14T05:02:40.127Z,3.90
2019-05-14T05:05:09.271Z,4.60
2019-05-14T05:07:40.274Z,4.80
2019-05-14T05:10:10.173Z,4.90
2019-05-14T05:12:39.080Z,4.07
2019-05-14T05:15:09.327Z,4.77
2019-05-14T05:17:47.808Z,4.30
2019-05-14T05:20:09.904Z,3.33
2019-05-14T05:22:39.639Z,3.93
2019-05-14T05:25:08.619Z,3.90
2019-05-14T05:27:38.203Z,3.83
2019-05-14T05:30:08.511Z,4.27
2019-05-14T05:32:38.842Z,4.10
2019-05-14T05:35:09.469Z,3.53
2019-05-14T05:37:38.565Z,4.13
2019-05-14T05:40:09.233Z,3.53
2019-05-14T05:42:38.667Z,3.80
2019-05-14T05:45:08.644Z,4.33
2019-05-14T05:47:39.045Z,3.83
2019-05-14T05:50:08.805Z,3.33
2019-05-14T05:52:38.791Z,4.30
2019-05-14T05:55:09.253Z,3.60
2019-05-14T05:57:39.193Z,3.23
2019-05-14T06:00:10.696Z,3.63
2019-05-14T06:02:39.923Z,3.63
2019-05-14T06:05:08.973Z,3.47
2019-05-14T06:07:39.472Z,4.27
2019-05-14T06:10:09.050Z,3.47
2019-05-14T06:12:38.848Z,3.00
2019-05-14T06:15:08.650Z,2.60
2019-05-14T06:17:39.136Z,3.37
2019-05-14T06:20:08.559Z,2.93
2019-05-14T06:22:38.982Z,1.90
2019-05-14T06:25:11.199Z,2.60
2019-05-14T06:27:40.065Z,3.13
2019-05-14T06:30:09.461Z,2.60
2019-05-14T06:32:38.650Z,2.70
2019-05-14T06:35:09.086Z,2.50
2019-05-14T06:37:38.552Z,2.90
2019-05-14T06:40:08.940Z,2.97
2019-05-14T06:42:39.499Z,4.60
2019-05-14T06:45:09.024Z,5.83
2019-05-14T06:47:38.374Z,3.17
2019-05-14T06:50:08.506Z,2.30
2019-05-14T06:52:38.580Z,5.27
2019-05-14T06:55:09.023Z,3.90
2019-05-14T06:57:39.387Z,3.63
2019-05-14T07:00:08.460Z,4.00
2019-05-14T07:02:43.390Z,3.30
2019-05-14T07:05:08.419Z,2.60
2019-05-14T07:07:40.087Z,3.37
2019-05-14T07:10:08.947Z,7.30
2019-05-14T07:12:38.732Z,4.60
2019-05-14T07:15:09.278Z,3.67
2019-05-14T07:17:38.542Z,4.47
2019-05-14T07:20:09.055Z,3.90
2019-05-14T07:22:38.983Z,4.30
2019-05-14T07:25:09.867Z,4.60
2019-05-14T07:27:40.269Z,2.87
2019-05-14T07:30:09.592Z,2.97
2019-05-14T07:32:39.420Z,2.13
2019-05-14T07:35:09.512Z,2.00
2019-05-14T07:37:39.528Z,2.00
2019-05-14T07:40:09.483Z,2.10
2019-05-14T07:42:38.514Z,2.40
2019-05-14T07:45:09.571Z,2.47
2019-05-14T07:47:38.972Z,2.33
2019-05-14T07:50:09.622Z,3.07
2019-05-14T07:52:45.391Z,2.40
2019-05-14T07:55:09.342Z,2.17
2019-05-14T07:57:39.267Z,4.30
2019-05-14T08:00:11.032Z,2.83
2019-05-14T08:02:39.637Z,2.80
2019-05-14T08:05:08.743Z,2.90
2019-05-14T08:07:38.826Z,2.43
2019-05-14T08:10:09.036Z,2.63
2019-05-14T08:12:39.175Z,2.33
2019-05-14T08:15:18.217Z,2.70
2019-05-14T08:17:40.221Z,2.30
2019-05-14T08:20:09.570Z,2.33
2019-05-14T08:22:38.428Z,2.50
2019-05-14T08:25:08.672Z,1.60
2019-05-14T08:27:38.877Z,2.30
2019-05-14T08:30:09.960Z,2.10
2019-05-14T08:32:39.166Z,2.30
2019-05-14T08:35:09.041Z,2.83
2019-05-14T08:37:38.744Z,2.30
2019-05-14T08:40:09.456Z,2.77
2019-05-14T08:42:38.444Z,2.20
2019-05-14T08:45:12.300Z,3.30
2019-05-14T08:47:39.014Z,2.50
2019-05-14T08:50:09.266Z,2.30
2019-05-14T08:52:39.289Z,2.73
2019-05-14T08:55:10.987Z,2.13
2019-05-14T08:57:38.913Z,2.90
2019-05-14T09:00:13.832Z,2.03
2019-05-14T09:02:39.516Z,2.40
2019-05-14T09:05:10.208Z,2.70
2019-05-14T09:07:39.682Z,2.97
2019-05-14T09:10:08.839Z,3.23
2019-05-14T09:12:38.859Z,2.50
2019-05-14T09:15:09.863Z,3.00
2019-05-14T09:17:39.110Z,3.67
2019-05-14T09:20:11.319Z,2.60
2019-05-14T09:22:39.773Z,3.30
2019-05-14T09:25:08.836Z,3.30
2019-05-14T09:27:38.682Z,3.03
2019-05-14T09:30:09.776Z,5.00
2019-05-14T09:32:38.976Z,3.13
2019-05-14T09:35:09.754Z,3.80
2019-05-14T09:37:39.625Z,4.50
2019-05-14T09:40:08.844Z,3.07
2019-05-14T09:42:39.394Z,3.60
2019-05-14T09:45:11.057Z,3.87
2019-05-14T09:47:39.144Z,3.13
2019-05-14T09:50:16.617Z,3.10
2019-05-14T09:52:39.210Z,3.20
2019-05-14T09:55:09.314Z,3.40
2019-05-14T09:57:38.767Z,2.80
2019-05-14T10:00:09.389Z,3.00
2019-05-14T10:02:39.281Z,6.00
2019-05-14T10:05:09.201Z,2.70
2019-05-14T10:07:39.096Z,3.20
2019-05-14T10:10:08.424Z,5.57
2019-05-14T10:12:47.667Z,6.50
2019-05-14T10:15:08.881Z,2.90
2019-05-14T10:17:39.263Z,2.70
2019-05-14T10:20:08.974Z,2.30
2019-05-14T10:22:39.841Z,2.37
2019-05-14T10:25:09.105Z,3.67
2019-05-14T10:27:38.053Z,3.10
2019-05-14T10:30:10.563Z,1.73
2019-05-14T10:32:41.392Z,4.33
2019-05-14T10:35:09.466Z,3.10
2019-05-14T10:37:40.021Z,3.37
2019-05-14T10:40:10.358Z,1.90
2019-05-14T10:42:40.511Z,2.00
2019-05-14T10:45:12.729Z,2.30
2019-05-14T10:47:40.108Z,1.90
2019-05-14T10:50:13.895Z,1.87
2019-05-14T10:52:40.096Z,4.10
2019-05-14T10:55:08.737Z,2.53
2019-05-14T10:57:37.276Z,2.70
2019-05-14T11:00:08.850Z,2.23
2019-05-14T11:02:38.816Z,3.37
2019-05-14T11:05:07.486Z,5.90
2019-05-14T11:07:41.461Z,2.77
2019-05-14T11:10:09.660Z,3.50
2019-05-14T11:12:39.493Z,3.57
2019-05-14T11:15:09.214Z,3.50
2019-05-14T11:17:40.435Z,3.10
2019-05-14T11:20:08.346Z,2.60
2019-05-14T11:22:36.868Z,3.00
2019-05-14T11:25:09.132Z,2.73
2019-05-14T11:27:38.789Z,3.40
2019-05-14T11:30:09.075Z,3.40
2019-05-14T11:32:38.581Z,2.87
2019-05-14T11:35:12.721Z,3.50
2019-05-14T11:37:41.514Z,3.43
2019-05-14T11:40:09.537Z,2.90
2019-05-14T11:42:38.840Z,3.20
2019-05-14T11:45:09.782Z,3.10
2019-05-14T11:47:38.357Z,2.67
2019-05-14T11:50:09.716Z,2.47
2019-05-14T11:52:38.958Z,4.33
2019-05-14T11:55:09.121Z,4.10
2019-05-14T11:57:37.795Z,3.27
2019-05-14T12:00:08.732Z,4.30
2019-05-14T12:02:38.477Z,2.47
2019-05-14T12:05:08.825Z,3.50
2019-05-14T12:07:38.877Z,3.43
2019-05-14T12:10:09.490Z,3.57
2019-05-14T12:12:38.022Z,3.60
2019-05-14T12:15:08.995Z,3.30
2019-05-14T12:17:39.477Z,2.93
2019-05-14T12:20:09.538Z,3.20
2019-05-14T12:22:39.303Z,3.40
2019-05-14T12:25:08.454Z,4.33
2019-05-14T12:27:38.758Z,22.37
2019-05-14T12:30:10.102Z,9.43
2019-05-14T12:32:39.570Z,5.80
2019-05-14T12:35:08.793Z,8.87
2019-05-14T12:37:38.810Z,2.13
2019-05-14T12:40:08.959Z,2.23
2019-05-14T12:42:39.398Z,2.50
2019-05-14T12:45:10.368Z,1.60
2019-05-14T12:47:39.052Z,1.93
2019-05-14T12:50:09.716Z,2.73
2019-05-14T12:52:38.930Z,3.50
2019-05-14T12:55:09.156Z,2.80
2019-05-14T12:57:39.470Z,3.30
2019-05-14T13:00:10.340Z,3.50
2019-05-14T13:02:38.926Z,4.10
2019-05-14T13:05:09.052Z,6.00
2019-05-14T13:07:41.547Z,7.80
2019-05-14T13:10:09.307Z,4.23
2019-05-14T13:12:39.212Z,7.33
2019-05-14T13:15:08.821Z,3.47
2019-05-14T13:17:38.877Z,4.00
2019-05-14T13:20:13.790Z,4.00
2019-05-14T13:22:45.889Z,3.33
2019-05-14T13:25:11.115Z,2.23
2019-05-14T13:27:39.935Z,2.20
2019-05-14T13:30:10.073Z,8.83
2019-05-14T13:32:40.276Z,5.80
2019-05-14T13:35:13.329Z,5.53
2019-05-14T13:37:39.968Z,3.47
2019-05-14T13:40:13.671Z,2.83
2019-05-14T13:42:44.257Z,3.00
2019-05-14T13:45:13.982Z,3.60
2019-05-14T13:47:42.475Z,2.50
2019-05-14T13:50:11.110Z,2.75
2019-05-14T13:52:58.199Z,2.57
2019-05-14T13:55:11.274Z,3.00
2019-05-14T13:57:40.189Z,2.23
2019-05-14T14:00:11.650Z,2.13
2019-05-14T14:02:40.064Z,3.20
2019-05-14T14:05:09.738Z,3.50
2019-05-14T14:07:39.654Z,3.47
2019-05-14T14:10:09.409Z,3.80
2019-05-14T14:12:40.283Z,3.03
2019-05-14T14:15:10.140Z,4.00
2019-05-14T14:17:39.461Z,3.90
2019-05-14T14:20:10.079Z,2.70
2019-05-14T14:22:40.063Z,3.20
2019-05-14T14:25:10.698Z,3.23
2019-05-14T14:27:41.137Z,2.90
2019-05-14T14:30:10.900Z,3.50
2019-05-14T14:32:40.845Z,3.40
2019-05-14T14:35:10.102Z,3.83
2019-05-14T14:37:39.628Z,4.13
2019-05-14T14:40:10.470Z,3.93
2019-05-14T14:42:40.358Z,4.90
2019-05-14T14:45:09.896Z,5.30
2019-05-14T14:47:39.365Z,5.77
2019-05-14T14:50:09.452Z,4.30
2019-05-14T14:52:38.017Z,4.07
2019-05-14T14:55:07.416Z,3.80
2019-05-14T14:57:36.236Z,4.17
2019-05-14T15:00:09.563Z,4.70
2019-05-14T15:02:41.269Z,4.10
2019-05-14T15:05:13.800Z,5.20
2019-05-14T15:07:40.799Z,3.53
2019-05-14T15:10:10.688Z,3.30
2019-05-14T15:12:40.540Z,5.03
2019-05-14T15:15:09.827Z,5.53
2019-05-14T15:17:39.550Z,4.87
2019-05-14T15:20:10.227Z,4.70
2019-05-14T15:22:38.544Z,3.70
2019-05-14T15:25:09.174Z,4.30
2019-05-14T15:27:38.524Z,3.80
2019-05-14T15:30:08.556Z,5.40
2019-05-14T15:32:37.806Z,6.73
2019-05-14T15:35:10.742Z,8.10
2019-05-14T15:37:42.919Z,4.10
2019-05-14T15:40:10.141Z,3.90
2019-05-14T15:42:39.616Z,4.97
2019-05-14T15:45:09.318Z,4.27
2019-05-14T15:47:39.217Z,5.50
2019-05-14T15:50:14.144Z,4.23
2019-05-14T15:52:51.748Z,5.33
2019-05-14T15:55:28.769Z,4.40
2019-05-14T15:57:59.120Z,4.80
2019-05-14T16:00:29.137Z,4.73
2019-05-14T16:03:04.162Z,5.27
2019-05-14T16:05:39.290Z,5.80
2019-05-14T16:08:18.866Z,5.00
2019-05-14T16:10:46.007Z,4.03
2019-05-14T16:13:15.121Z,3.80
2019-05-14T16:15:49.277Z,4.37
2019-05-14T16:18:21.657Z,4.57
2019-05-14T16:20:49.871Z,3.90
2019-05-14T16:23:19.408Z,3.50
2019-05-14T16:25:48.525Z,4.03
2019-05-14T16:28:19.552Z,3.70
2019-05-14T16:30:49.706Z,5.27
2019-05-14T16:33:19.367Z,5.50
2019-05-14T16:35:48.621Z,4.37
2019-05-14T16:38:17.700Z,4.00
2019-05-14T16:40:48.775Z,3.50
2019-05-14T16:43:19.102Z,4.77
2019-05-14T16:45:49.138Z,5.70
2019-05-14T16:48:18.458Z,3.90
2019-05-14T16:50:50.751Z,3.40
2019-05-14T16:53:19.658Z,4.60
2019-05-14T16:55:48.985Z,8.53
2019-05-14T16:58:19.553Z,7.80
2019-05-14T17:00:49.130Z,6.70
2019-05-14T17:03:19.117Z,4.77
2019-05-14T17:05:48.831Z,7.60
2019-05-14T17:08:19.010Z,7.83
2019-05-14T17:10:50.409Z,4.17
2019-05-14T17:13:19.320Z,4.83
2019-05-14T17:15:48.423Z,3.57
2019-05-14T17:18:19.268Z,6.37
2019-05-14T17:20:48.992Z,4.60
2019-05-14T17:23:19.289Z,8.30
2019-05-14T17:25:49.135Z,7.10
2019-05-14T17:28:18.255Z,3.63
2019-05-14T17:30:49.186Z,3.60
2019-05-14T17:33:24.166Z,3.23
2019-05-14T17:35:53.662Z,6.60
2019-05-14T17:38:22.647Z,2.87
2019-05-14T17:40:52.154Z,2.63
2019-05-14T17:43:23.251Z,4.80
2019-05-14T17:45:50.954Z,5.37
2019-05-14T17:48:19.628Z,3.03
2019-05-14T17:50:49.098Z,5.97
2019-05-14T17:53:19.239Z,3.27
2019-05-14T17:55:50.725Z,3.90
2019-05-14T17:58:18.794Z,2.30
2019-05-14T18:00:47.635Z,3.00
2019-05-14T18:03:18.397Z,3.60
2019-05-14T18:05:46.662Z,2.70
2019-05-14T18:08:15.195Z,4.17
2019-05-14T18:10:44.745Z,3.03
2019-05-14T18:13:13.400Z,4.70
2019-05-14T18:15:43.876Z,3.80
2019-05-14T18:18:14.173Z,5.80
2019-05-14T18:20:42.717Z,3.00
2019-05-14T18:23:12.252Z,5.17
2019-05-14T18:25:40.928Z,3.03
2019-05-14T18:28:10.359Z,3.57
2019-05-14T18:30:38.966Z,3.00
2019-05-14T18:33:12.013Z,2.50
2019-05-14T18:35:46.605Z,3.33
2019-05-14T18:38:14.418Z,2.63
2019-05-14T18:40:43.041Z,2.10
2019-05-14T18:43:11.638Z,2.80
2019-05-14T18:45:42.215Z,2.40
2019-05-14T18:48:10.790Z,1.90
2019-05-14T18:50:40.884Z,2.77
2019-05-14T18:53:12.762Z,1.93
2019-05-14T18:55:40.134Z,2.23
2019-05-14T18:58:08.745Z,2.37
2019-05-14T19:00:38.886Z,2.60
2019-05-14T19:03:08.440Z,2.53
2019-05-14T19:05:39.595Z,2.40
2019-05-14T19:08:09.562Z,2.40
2019-05-14T19:10:39.177Z,3.43
2019-05-14T19:13:09.434Z,3.63
2019-05-14T19:15:45.684Z,6.10
2019-05-14T19:18:13.979Z,3.83
2019-05-14T19:20:43.133Z,4.57
2019-05-14T19:23:14.019Z,2.67
2019-05-14T19:25:42.640Z,2.35
2019-05-14T19:28:14.021Z,2.50
2019-05-14T19:30:44.243Z,3.00
2019-05-14T19:33:15.766Z,2.67
2019-05-14T19:35:44.898Z,3.17
2019-05-14T19:38:14.910Z,5.53
2019-05-14T19:40:45.151Z,2.87
2019-05-14T19:43:14.223Z,2.23
2019-05-14T19:45:45.588Z,2.33
2019-05-14T19:48:14.921Z,2.43
2019-05-14T19:50:45.286Z,2.43
2019-05-14T19:53:16.204Z,2.07
2019-05-14T19:55:48.275Z,2.57
2019-05-14T19:58:20.100Z,2.30
2019-05-14T20:00:48.962Z,2.43
2019-05-14T20:03:23.176Z,3.07
2019-05-14T20:05:52.247Z,2.30
2019-05-14T20:08:22.285Z,2.30
2019-05-14T20:10:51.273Z,2.10
2019-05-14T20:13:21.347Z,2.20
2019-05-14T20:15:50.071Z,2.00
2019-05-14T20:18:19.046Z,2.30
2019-05-14T20:20:49.226Z,2.23
2019-05-14T20:23:18.522Z,2.47
2019-05-14T20:25:49.969Z,2.30
2019-05-14T20:28:19.075Z,2.10
2019-05-14T20:30:49.226Z,2.30
2019-05-14T20:33:19.115Z,2.57
2019-05-14T20:35:48.527Z,2.00
2019-05-14T20:38:19.119Z,1.90
2019-05-14T20:40:48.651Z,2.10
2019-05-14T20:43:18.523Z,2.40
2019-05-14T20:45:48.967Z,2.03
2019-05-14T20:48:18.905Z,2.67
2019-05-14T20:50:48.009Z,2.20
2019-05-14T20:53:18.576Z,2.70
2019-05-14T20:55:46.903Z,2.33
2019-05-14T20:58:15.448Z,2.03
2019-05-14T21:00:44.085Z,2.50
2019-05-14T21:03:12.620Z,2.10
2019-05-14T21:05:42.453Z,2.30
2019-05-14T21:08:13.529Z,2.40
2019-05-14T21:10:41.761Z,2.40
2019-05-14T21:13:10.317Z,4.53
2019-05-14T21:15:39.256Z,2.57
2019-05-14T21:18:08.437Z,2.63
2019-05-14T21:20:39.361Z,3.00
2019-05-14T21:23:09.001Z,4.83
2019-05-14T21:25:38.688Z,5.60
2019-05-14T21:28:09.283Z,3.93
2019-05-14T21:30:38.734Z,3.57
2019-05-14T21:33:08.433Z,2.47
2019-05-14T21:35:38.980Z,1.97
2019-05-14T21:38:09.093Z,2.23
2019-05-14T21:40:38.954Z,2.30
2019-05-14T21:43:11.049Z,2.50
2019-05-14T21:45:38.439Z,2.30
2019-05-14T21:48:08.671Z,2.40
2019-05-14T21:50:38.715Z,2.80
2019-05-14T21:53:08.442Z,3.80
2019-05-14T21:58:11.537Z,2.85
2019-05-14T22:00:43.187Z,2.90
2019-05-14T22:03:11.916Z,2.70
2019-05-14T22:05:40.506Z,2.37
2019-05-14T22:08:09.223Z,2.20
2019-05-14T22:10:39.596Z,2.80
2019-05-14T22:13:08.214Z,2.73
2019-05-14T22:15:38.982Z,2.00
2019-05-14T22:18:14.958Z,2.30
2019-05-14T22:20:38.530Z,2.60
2019-05-14T22:23:08.822Z,2.90
2019-05-14T22:25:39.466Z,2.37
2019-05-14T22:28:14.994Z,2.70
2019-05-14T22:30:38.940Z,2.67
2019-05-14T22:33:08.525Z,2.40
2019-05-14T22:35:39.496Z,2.60
2019-05-14T22:38:07.678Z,2.67
2019-05-14T22:40:38.769Z,2.57
2019-05-14T22:43:08.865Z,2.70
2019-05-14T22:45:36.797Z,2.70
2019-05-14T22:48:05.454Z,2.30
2019-05-14T22:50:34.002Z,2.90
2019-05-14T22:53:02.706Z,2.50
2019-05-14T22:55:31.395Z,2.63
2019-05-14T22:58:00.081Z,2.17
2019-05-14T23:00:29.011Z,2.47
2019-05-14T23:02:57.827Z,3.03
2019-05-14T23:05:28.886Z,2.97
2019-05-14T23:07:58.269Z,4.73
2019-05-14T23:10:27.228Z,3.20
2019-05-14T23:12:55.832Z,3.00
2019-05-14T23:15:24.588Z,2.73
2019-05-14T23:17:53.868Z,2.50
2019-05-14T23:20:22.482Z,2.87
2019-05-14T23:22:51.091Z,2.93
2019-05-14T23:25:19.660Z,2.73
2019-05-14T23:27:48.451Z,3.00
2019-05-14T23:30:20.548Z,2.80
2019-05-14T23:32:49.354Z,3.10
2019-05-14T23:35:18.859Z,3.90
2019-05-14T23:37:48.932Z,2.97
2019-05-14T23:40:17.772Z,3.50
2019-05-14T23:42:48.752Z,3.20
2019-05-14T23:45:18.825Z,2.60
2019-05-14T23:47:49.045Z,2.60
2019-05-14T23:50:16.945Z,2.50
2019-05-14T23:52:45.640Z,2.77
2019-05-14T23:55:14.394Z,2.80
2019-05-14T23:57:42.913Z,2.63
